createdAt,value
2022-10-09T00:00:10.176Z,102516.00
2022-10-09T00:02:36.640Z,102512.00
2022-10-09T00:05:03.240Z,102509.00
2022-10-09T00:07:29.751Z,102517.00
2022-10-09T00:09:56.171Z,102507.00
2022-10-09T00:12:22.585Z,102499.00
2022-10-09T00:14:49.084Z,102497.00
2022-10-09T00:17:15.468Z,102504.00
2022-10-09T00:19:41.935Z,102496.00
2022-10-09T00:22:08.399Z,102500.00
2022-10-09T00:24:34.857Z,102496.00
2022-10-09T00:27:01.302Z,102494.00
2022-10-09T00:29:27.713Z,102498.00
2022-10-09T00:31:54.110Z,102503.00
2022-10-09T00:34:20.530Z,102500.00
2022-10-09T00:36:46.976Z,102494.00
2022-10-09T00:39:13.466Z,102492.00
2022-10-09T00:41:40.573Z,102495.00
2022-10-09T00:44:25.919Z,102486.00
2022-10-09T00:46:52.461Z,102488.00
2022-10-09T00:49:27.149Z,102492.00
2022-10-09T00:51:54.383Z,102486.00
2022-10-09T00:54:22.111Z,102485.00
2022-10-09T00:56:48.974Z,102485.00
2022-10-09T00:59:16.695Z,102476.00
2022-10-09T01:01:43.734Z,102481.00
2022-10-09T01:04:10.259Z,102470.00
2022-10-09T01:06:48.762Z,102474.00
2022-10-09T01:09:19.991Z,102475.00
2022-10-09T01:11:53.542Z,102467.00
2022-10-09T01:14:32.521Z,102470.00
2022-10-09T01:17:10.912Z,102470.00
2022-10-09T01:19:55.937Z,102461.00
2022-10-09T01:22:25.212Z,102464.00
2022-10-09T01:25:11.930Z,102459.00
2022-10-09T01:27:38.620Z,102452.00
2022-10-09T01:30:07.260Z,102463.00
2022-10-09T01:32:36.647Z,102449.00
2022-10-09T01:35:05.753Z,102453.00
2022-10-09T01:37:34.082Z,102449.00
2022-10-09T01:40:00.822Z,102449.00
2022-10-09T01:42:28.889Z,102445.00
2022-10-09T01:44:55.453Z,102440.00
2022-10-09T01:47:22.155Z,102446.00
2022-10-09T01:49:51.587Z,102442.00
2022-10-09T01:52:27.129Z,102447.00
2022-10-09T01:55:12.461Z,102442.00
2022-10-09T01:57:41.861Z,102440.00
2022-10-09T02:00:09.666Z,102431.00
2022-10-09T02:02:36.721Z,102430.00
2022-10-09T02:05:03.390Z,102429.00
2022-10-09T02:07:31.288Z,102428.00
2022-10-09T02:09:58.621Z,102424.00
2022-10-09T02:12:27.118Z,102425.00
2022-10-09T02:14:53.640Z,102420.00
2022-10-09T02:17:23.326Z,102416.00
2022-10-09T02:20:22.398Z,102413.00
2022-10-09T02:22:49.396Z,102408.00
2022-10-09T02:25:17.200Z,102417.00
2022-10-09T02:27:44.395Z,102404.00
2022-10-09T02:30:11.084Z,102407.00
2022-10-09T02:32:37.503Z,102401.00
2022-10-09T02:35:04.113Z,102405.00
2022-10-09T02:37:30.974Z,102412.00
2022-10-09T02:39:57.389Z,102405.00
2022-10-09T02:42:25.965Z,102408.00
2022-10-09T02:44:52.628Z,102406.00
2022-10-09T02:47:19.134Z,102395.00
2022-10-09T02:49:45.597Z,102400.00
2022-10-09T02:52:12.056Z,102391.00
2022-10-09T02:54:38.548Z,102392.00
2022-10-09T02:57:04.975Z,102390.00
2022-10-09T02:59:32.274Z,102383.00
2022-10-09T03:01:58.790Z,102388.00
2022-10-09T03:04:25.320Z,102376.00
2022-10-09T03:06:51.735Z,102376.00
2022-10-09T03:09:18.180Z,102381.00
2022-10-09T03:11:44.689Z,102376.00
2022-10-09T03:14:11.130Z,102372.00
2022-10-09T03:16:37.573Z,102377.00
2022-10-09T03:19:04.019Z,102363.00
2022-10-09T03:21:30.466Z,102369.00
2022-10-09T03:23:57.067Z,102370.00
2022-10-09T03:26:24.678Z,102364.00
2022-10-09T03:28:51.804Z,102360.00
2022-10-09T03:31:39.735Z,102362.00
2022-10-09T03:34:06.432Z,102359.00
2022-10-09T03:36:32.859Z,102370.00
2022-10-09T03:38:59.270Z,102353.00
2022-10-09T03:41:25.693Z,102358.00
2022-10-09T03:43:52.141Z,102353.00
2022-10-09T03:46:18.620Z,102358.00
2022-10-09T03:48:45.833Z,102344.00
2022-10-09T03:51:12.263Z,102356.00
2022-10-09T03:53:38.705Z,102346.00
2022-10-09T03:56:05.247Z,102344.00
2022-10-09T03:58:31.697Z,102349.00
2022-10-09T04:00:58.268Z,102343.00
2022-10-09T04:03:24.866Z,102344.00
2022-10-09T04:05:51.303Z,102349.00
2022-10-09T04:08:17.728Z,102347.00
2022-10-09T04:10:44.696Z,102346.00
2022-10-09T04:13:11.098Z,102345.00
2022-10-09T04:15:37.703Z,102347.00
2022-10-09T04:18:04.208Z,102341.00
2022-10-09T04:20:30.652Z,102336.00
2022-10-09T04:22:57.114Z,102337.00
2022-10-09T04:25:23.581Z,102335.00
2022-10-09T04:27:50.068Z,102339.00
2022-10-09T04:30:16.517Z,102338.00
2022-10-09T04:32:42.990Z,102339.00
2022-10-09T04:35:09.387Z,102337.00
2022-10-09T04:37:36.787Z,102332.00
2022-10-09T04:40:03.692Z,102340.00
2022-10-09T04:42:30.558Z,102332.00
2022-10-09T04:44:57.006Z,102332.00
2022-10-09T04:47:23.475Z,102332.00
2022-10-09T04:49:49.992Z,102338.00
2022-10-09T04:52:16.466Z,102336.00
2022-10-09T04:54:42.981Z,102323.00
2022-10-09T04:57:09.368Z,102328.00
2022-10-09T04:59:35.806Z,102329.00
2022-10-09T05:02:02.401Z,102330.00
2022-10-09T05:04:28.910Z,102319.00
2022-10-09T05:06:55.384Z,102323.00
2022-10-09T05:09:21.806Z,102319.00
2022-10-09T05:11:48.209Z,102323.00
2022-10-09T05:14:14.720Z,102316.00
2022-10-09T05:17:08.069Z,102322.00
2022-10-09T05:19:27.621Z,102311.00
2022-10-09T05:21:54.590Z,102307.00
2022-10-09T05:24:21.051Z,102308.00
2022-10-09T05:26:47.501Z,102305.00
2022-10-09T05:29:13.931Z,102295.00
2022-10-09T05:31:40.467Z,102304.00
2022-10-09T05:34:06.970Z,102298.00
2022-10-09T05:36:33.420Z,102288.00
2022-10-09T05:39:01.238Z,102294.00
2022-10-09T05:41:29.504Z,102290.00
2022-10-09T05:44:02.063Z,102294.00
2022-10-09T05:46:29.857Z,102287.00
2022-10-09T05:48:57.722Z,102292.00
2022-10-09T05:51:27.394Z,102289.00
2022-10-09T05:53:53.851Z,102287.00
2022-10-09T05:56:27.286Z,102286.00
2022-10-09T05:58:55.229Z,102290.00
2022-10-09T06:01:22.222Z,102274.00
2022-10-09T06:03:54.382Z,102270.00
2022-10-09T06:06:22.174Z,102277.00
2022-10-09T06:08:48.678Z,102279.00
2022-10-09T06:11:17.031Z,102280.00
2022-10-09T06:13:44.071Z,102278.00
2022-10-09T06:16:11.817Z,102283.00
2022-10-09T06:18:39.350Z,102281.00
2022-10-09T06:21:05.929Z,102271.00
2022-10-09T06:23:32.391Z,102273.00
2022-10-09T06:26:03.408Z,102277.00
2022-10-09T06:28:30.363Z,102274.00
2022-10-09T06:31:01.699Z,102274.00
2022-10-09T06:33:35.247Z,102272.00
2022-10-09T06:36:10.442Z,102270.00
2022-10-09T06:38:37.736Z,102264.00
2022-10-09T06:41:05.370Z,102269.00
2022-10-09T06:43:31.916Z,102277.00
2022-10-09T06:46:02.922Z,102280.00
2022-10-09T06:48:31.048Z,102274.00
2022-10-09T06:51:04.732Z,102278.00
2022-10-09T06:53:33.802Z,102277.00
2022-10-09T06:56:00.256Z,102276.00
2022-10-09T06:58:27.692Z,102283.00
2022-10-09T07:01:06.174Z,102287.00
2022-10-09T07:03:32.987Z,102282.00
2022-10-09T07:06:06.388Z,102279.00
2022-10-09T07:08:32.909Z,102276.00
2022-10-09T07:10:59.284Z,102275.00
2022-10-09T07:13:25.763Z,102280.00
2022-10-09T07:15:52.183Z,102280.00
2022-10-09T07:18:18.632Z,102275.00
2022-10-09T07:20:45.079Z,102277.00
2022-10-09T07:23:11.568Z,102271.00
2022-10-09T07:25:38.440Z,102269.00
2022-10-09T07:28:04.976Z,102271.00
2022-10-09T07:30:31.415Z,102267.00
2022-10-09T07:32:57.871Z,102271.00
2022-10-09T07:35:24.354Z,102264.00
2022-10-09T07:37:51.493Z,102260.00
2022-10-09T07:40:17.938Z,102269.00
2022-10-09T07:42:44.439Z,102273.00
2022-10-09T07:45:11.023Z,102267.00
2022-10-09T07:47:40.222Z,102267.00
2022-10-09T07:50:07.071Z,102272.00
2022-10-09T07:52:33.516Z,102269.00
2022-10-09T07:54:59.986Z,102271.00
2022-10-09T07:57:26.502Z,102263.00
2022-10-09T07:59:52.942Z,102264.00
2022-10-09T08:02:19.365Z,102274.00
2022-10-09T08:04:45.816Z,102264.00
2022-10-09T08:07:12.217Z,102265.00
2022-10-09T08:09:39.670Z,102268.00
2022-10-09T08:12:06.518Z,102269.00
2022-10-09T08:14:33.008Z,102265.00
2022-10-09T08:16:59.467Z,102270.00
2022-10-09T08:19:25.875Z,102260.00
2022-10-09T08:21:52.274Z,102262.00
2022-10-09T08:24:18.747Z,102266.00
2022-10-09T08:26:45.370Z,102255.00
2022-10-09T08:29:13.982Z,102260.00
2022-10-09T08:31:40.656Z,102266.00
2022-10-09T08:34:07.214Z,102258.00
2022-10-09T08:36:33.755Z,102261.00
2022-10-09T08:39:00.201Z,102255.00
2022-10-09T08:41:32.423Z,102253.00
2022-10-09T08:44:09.902Z,102246.00
2022-10-09T08:46:55.207Z,102238.00
2022-10-09T08:49:27.890Z,102240.00
2022-10-09T08:51:55.163Z,102229.00
2022-10-09T08:54:35.367Z,102228.00
2022-10-09T08:57:03.625Z,102229.00
2022-10-09T08:59:30.904Z,102221.00
2022-10-09T09:02:07.808Z,102223.00
2022-10-09T09:04:54.449Z,102220.00
2022-10-09T09:07:27.457Z,102217.00
2022-10-09T09:09:53.875Z,102222.00
2022-10-09T09:12:39.378Z,102213.00
2022-10-09T09:15:08.857Z,102209.00
2022-10-09T09:18:01.674Z,102208.00
2022-10-09T09:20:31.225Z,102212.00
2022-10-09T09:23:01.035Z,102207.00
2022-10-09T09:25:30.850Z,102211.00
2022-10-09T09:27:58.990Z,102204.00
2022-10-09T09:30:33.992Z,102206.00
2022-10-09T09:33:19.515Z,102199.00
2022-10-09T09:35:51.843Z,102193.00
2022-10-09T09:38:18.360Z,102192.00
2022-10-09T09:40:47.313Z,102187.00
2022-10-09T09:43:18.948Z,102196.00
2022-10-09T09:45:45.833Z,102191.00
2022-10-09T09:48:15.040Z,102191.00
2022-10-09T09:50:50.626Z,102184.00
2022-10-09T09:53:26.246Z,102174.00
2022-10-09T09:55:53.684Z,102173.00
2022-10-09T09:58:20.970Z,102172.00
2022-10-09T10:00:57.890Z,102172.00
2022-10-09T10:03:24.927Z,102168.00
2022-10-09T10:05:51.871Z,102163.00
2022-10-09T10:08:26.230Z,102158.00
2022-10-09T10:10:54.075Z,102163.00
2022-10-09T10:13:22.666Z,102151.00
2022-10-09T10:15:51.373Z,102147.00
2022-10-09T10:18:19.056Z,102143.00
2022-10-09T10:20:50.769Z,102130.00
2022-10-09T10:23:37.819Z,102133.00
2022-10-09T10:26:20.520Z,102131.00
2022-10-09T10:28:52.130Z,102128.00
2022-10-09T10:31:41.707Z,102126.00
2022-10-09T10:34:14.108Z,102119.00
2022-10-09T10:36:40.530Z,102107.00
2022-10-09T10:39:24.014Z,102107.00
2022-10-09T10:41:52.734Z,102101.00
2022-10-09T10:44:23.030Z,102103.00
2022-10-09T10:46:55.214Z,102101.00
2022-10-09T10:49:22.352Z,102099.00
2022-10-09T10:52:04.366Z,102095.00
2022-10-09T10:54:35.392Z,102092.00
2022-10-09T10:57:07.831Z,102083.00
2022-10-09T10:59:57.988Z,102081.00
2022-10-09T11:02:24.516Z,102079.00
2022-10-09T11:04:51.114Z,102080.00
2022-10-09T11:07:32.823Z,102072.00
2022-10-09T11:10:11.562Z,102066.00
2022-10-09T11:12:48.194Z,102073.00
2022-10-09T11:15:16.896Z,102067.00
2022-10-09T11:17:52.200Z,102067.00
2022-10-09T11:20:24.640Z,102053.00
2022-10-09T11:22:58.787Z,102054.00
2022-10-09T11:25:26.458Z,102059.00
2022-10-09T11:27:53.061Z,102049.00
2022-10-09T11:30:19.946Z,102043.00
2022-10-09T11:33:04.770Z,102040.00
2022-10-09T11:35:34.820Z,102033.00
2022-10-09T11:38:02.535Z,102030.00
2022-10-09T11:40:39.893Z,102030.00
2022-10-09T11:43:09.494Z,102021.00
2022-10-09T11:45:55.812Z,102015.00
2022-10-09T11:48:28.376Z,102006.00
2022-10-09T11:50:59.343Z,102003.00
2022-10-09T11:53:26.250Z,102006.00
2022-10-09T11:56:03.443Z,101999.00
2022-10-09T11:58:30.051Z,101989.00
2022-10-09T12:00:57.765Z,101987.00
2022-10-09T12:03:27.534Z,101976.00
2022-10-09T12:06:02.166Z,101965.00
2022-10-09T12:08:29.002Z,101968.00
2022-10-09T12:10:58.212Z,101964.00
2022-10-09T12:13:30.066Z,101952.00
2022-10-09T12:15:57.758Z,101953.00
2022-10-09T12:18:38.647Z,101942.00
2022-10-09T12:21:07.487Z,101939.00
2022-10-09T12:23:36.043Z,101932.00
2022-10-09T12:26:03.759Z,101928.00
2022-10-09T12:28:59.695Z,101922.00
2022-10-09T12:31:28.978Z,101914.00
2022-10-09T12:34:04.876Z,101912.00
2022-10-09T12:36:31.769Z,101901.00
2022-10-09T12:38:58.367Z,101897.00
2022-10-09T12:41:25.113Z,101891.00
2022-10-09T12:43:52.520Z,101889.00
2022-10-09T12:46:26.353Z,101888.00
2022-10-09T12:48:52.964Z,101879.00
2022-10-09T12:51:23.123Z,101874.00
2022-10-09T12:53:50.843Z,101870.00
2022-10-09T12:56:25.538Z,101856.00
2022-10-09T12:58:52.446Z,101864.00
2022-10-09T13:01:19.303Z,101854.00
2022-10-09T13:04:03.594Z,101856.00
2022-10-09T13:06:34.702Z,101860.00
2022-10-09T13:09:02.544Z,101849.00
2022-10-09T13:11:28.923Z,101836.00
2022-10-09T13:13:55.625Z,101837.00
2022-10-09T13:16:22.709Z,101831.00
2022-10-09T13:18:59.230Z,101827.00
2022-10-09T13:21:29.144Z,101823.00
2022-10-09T13:24:11.186Z,101820.00
2022-10-09T13:26:38.176Z,101820.00
2022-10-09T13:29:06.439Z,101811.00
2022-10-09T13:31:33.806Z,101817.00
2022-10-09T13:34:00.923Z,101797.00
2022-10-09T13:36:27.342Z,101799.00
2022-10-09T13:38:53.754Z,101801.00
2022-10-09T13:41:22.757Z,101798.00
2022-10-09T13:43:49.562Z,101796.00
2022-10-09T13:46:16.499Z,101788.00
2022-10-09T13:48:43.189Z,101780.00
2022-10-09T13:51:09.777Z,101780.00
2022-10-09T13:53:36.206Z,101781.00
2022-10-09T13:56:02.752Z,101779.00
2022-10-09T13:58:29.208Z,101764.00
2022-10-09T14:00:55.748Z,101763.00
2022-10-09T14:03:22.297Z,101756.00
2022-10-09T14:05:48.778Z,101746.00
2022-10-09T14:08:15.250Z,101749.00
2022-10-09T14:10:42.696Z,101747.00
2022-10-09T14:13:10.034Z,101743.00
2022-10-09T14:15:40.278Z,101742.00
2022-10-09T14:18:07.151Z,101727.00
2022-10-09T14:20:33.891Z,101732.00
2022-10-09T14:23:00.347Z,101723.00
2022-10-09T14:25:26.818Z,101716.00
2022-10-09T14:27:53.205Z,101724.00
2022-10-09T14:30:19.710Z,101720.00
2022-10-09T14:32:46.301Z,101711.00
2022-10-09T14:35:13.246Z,101722.00
2022-10-09T14:37:42.225Z,101714.00
2022-10-09T14:40:09.651Z,101710.00
2022-10-09T14:42:36.684Z,101710.00
2022-10-09T14:45:03.304Z,101710.00
2022-10-09T14:47:29.752Z,101708.00
2022-10-09T14:49:56.210Z,101697.00
2022-10-09T14:52:22.687Z,101698.00
2022-10-09T14:54:49.093Z,101690.00
2022-10-09T14:57:15.538Z,101690.00
2022-10-09T14:59:41.935Z,101687.00
2022-10-09T15:02:16.482Z,101683.00
2022-10-09T15:04:42.957Z,101680.00
2022-10-09T15:07:09.504Z,101672.00
2022-10-09T15:09:35.941Z,101677.00
2022-10-09T15:12:02.410Z,101666.00
2022-10-09T15:14:29.151Z,101669.00
2022-10-09T15:16:55.661Z,101660.00
2022-10-09T15:19:22.139Z,101658.00
2022-10-09T15:21:48.678Z,101656.00
2022-10-09T15:24:15.152Z,101656.00
2022-10-09T15:26:42.102Z,101657.00
2022-10-09T15:29:08.727Z,101652.00
2022-10-09T15:31:36.565Z,101645.00
2022-10-09T15:34:03.601Z,101643.00
2022-10-09T15:36:31.384Z,101633.00
2022-10-09T15:38:57.887Z,101630.00
2022-10-09T15:41:25.578Z,101628.00
2022-10-09T15:43:52.741Z,101625.00
2022-10-09T15:46:19.378Z,101618.00
2022-10-09T15:48:46.027Z,101614.00
2022-10-09T15:51:15.454Z,101605.00
2022-10-09T15:53:42.723Z,101600.00
2022-10-09T15:56:10.167Z,101592.00
2022-10-09T15:58:36.694Z,101590.00
2022-10-09T16:01:04.839Z,101585.00
2022-10-09T16:03:35.304Z,101586.00
2022-10-09T16:06:04.780Z,101582.00
2022-10-09T16:08:31.405Z,101577.00
2022-10-09T16:10:58.110Z,101573.00
2022-10-09T16:13:25.519Z,101572.00
2022-10-09T16:15:52.127Z,101569.00
2022-10-09T16:18:20.072Z,101565.00
2022-10-09T16:20:46.523Z,101571.00
2022-10-09T16:23:13.094Z,101572.00
2022-10-09T16:25:40.406Z,101562.00
2022-10-09T16:28:08.058Z,101566.00
2022-10-09T16:30:44.412Z,101564.00
2022-10-09T16:33:12.826Z,101568.00
2022-10-09T16:35:39.526Z,101565.00
2022-10-09T16:38:05.954Z,101567.00
2022-10-09T16:40:57.402Z,101568.00
2022-10-09T16:43:19.699Z,101567.00
2022-10-09T16:45:52.367Z,101564.00
2022-10-09T16:48:18.915Z,101563.00
2022-10-09T16:50:45.802Z,101556.00
2022-10-09T16:53:12.223Z,101564.00
2022-10-09T16:55:38.666Z,101560.00
2022-10-09T16:58:05.217Z,101560.00
2022-10-09T17:00:31.692Z,101559.00
2022-10-09T17:02:58.351Z,101555.00
2022-10-09T17:05:25.613Z,101552.00
2022-10-09T17:07:52.512Z,101554.00
2022-10-09T17:10:19.354Z,101555.00
2022-10-09T17:12:45.773Z,101559.00
2022-10-09T17:15:13.554Z,101557.00
2022-10-09T17:17:40.164Z,101553.00
2022-10-09T17:20:07.293Z,101556.00
2022-10-09T17:22:33.780Z,101556.00
2022-10-09T17:25:00.241Z,101558.00
2022-10-09T17:27:26.686Z,101556.00
2022-10-09T17:29:53.175Z,101554.00
2022-10-09T17:32:19.617Z,101565.00
2022-10-09T17:34:46.098Z,101562.00
2022-10-09T17:37:12.906Z,101562.00
2022-10-09T17:39:39.686Z,101558.00
2022-10-09T17:42:06.187Z,101554.00
2022-10-09T17:44:32.640Z,101546.00
2022-10-09T17:47:00.785Z,101552.00
2022-10-09T17:49:27.295Z,101547.00
2022-10-09T17:51:54.526Z,101546.00
2022-10-09T17:54:21.315Z,101553.00
2022-10-09T17:56:47.906Z,101549.00
2022-10-09T17:59:15.703Z,101552.00
2022-10-09T18:01:42.201Z,101553.00
2022-10-09T18:04:10.249Z,101559.00
2022-10-09T18:06:36.728Z,101550.00
2022-10-09T18:09:03.861Z,101546.00
2022-10-09T18:11:30.319Z,101548.00
2022-10-09T18:13:56.881Z,101546.00
2022-10-09T18:16:32.705Z,101549.00
2022-10-09T18:19:02.387Z,101549.00
2022-10-09T18:21:29.216Z,101533.00
2022-10-09T18:23:55.724Z,101538.00
2022-10-09T18:26:22.412Z,101538.00
2022-10-09T18:28:48.859Z,101540.00
2022-10-09T18:31:17.520Z,101537.00
2022-10-09T18:33:44.018Z,101528.00
2022-10-09T18:36:19.529Z,101530.00
2022-10-09T18:38:51.427Z,101522.00
2022-10-09T18:41:18.260Z,101517.00
2022-10-09T18:43:44.786Z,101526.00
2022-10-09T18:46:11.571Z,101518.00
2022-10-09T18:48:38.987Z,101514.00
2022-10-09T18:51:06.856Z,101517.00
2022-10-09T18:53:35.055Z,101516.00
2022-10-09T18:56:01.574Z,101511.00
2022-10-09T18:58:28.154Z,101507.00
2022-10-09T19:00:54.648Z,101495.00
2022-10-09T19:03:21.098Z,101498.00
2022-10-09T19:05:47.515Z,101499.00
2022-10-09T19:08:13.948Z,101497.00
2022-10-09T19:10:40.369Z,101494.00
2022-10-09T19:13:06.892Z,101487.00
2022-10-09T19:15:33.348Z,101493.00
2022-10-09T19:17:59.778Z,101486.00
2022-10-09T19:20:28.969Z,101483.00
2022-10-09T19:22:55.422Z,101485.00
2022-10-09T19:25:21.839Z,101479.00
2022-10-09T19:27:48.585Z,101483.00
2022-10-09T19:30:15.409Z,101486.00
2022-10-09T19:32:43.872Z,101481.00
2022-10-09T19:35:10.427Z,101471.00
2022-10-09T19:37:36.868Z,101472.00
2022-10-09T19:40:03.476Z,101457.00
2022-10-09T19:42:30.045Z,101461.00
2022-10-09T19:44:56.442Z,101462.00
2022-10-09T19:47:23.737Z,101459.00
2022-10-09T19:49:50.122Z,101460.00
2022-10-09T19:52:16.579Z,101466.00
2022-10-09T19:54:43.005Z,101458.00
2022-10-09T19:57:09.420Z,101454.00
2022-10-09T19:59:35.943Z,101452.00
2022-10-09T20:02:02.419Z,101461.00
2022-10-09T20:04:31.900Z,101455.00
2022-10-09T20:06:58.652Z,101459.00
2022-10-09T20:09:25.181Z,101448.00
2022-10-09T20:11:51.622Z,101449.00
2022-10-09T20:14:18.111Z,101447.00
2022-10-09T20:16:44.537Z,101444.00
2022-10-09T20:19:12.005Z,101451.00
2022-10-09T20:21:38.476Z,101450.00
2022-10-09T20:24:06.193Z,101442.00
2022-10-09T20:26:33.270Z,101447.00
2022-10-09T20:28:59.788Z,101444.00
2022-10-09T20:31:27.343Z,101446.00
2022-10-09T20:33:54.125Z,101439.00
2022-10-09T20:36:31.551Z,101450.00
2022-10-09T20:38:59.087Z,101444.00
2022-10-09T20:41:26.086Z,101436.00
2022-10-09T20:43:53.520Z,101427.00
2022-10-09T20:46:21.346Z,101427.00
2022-10-09T20:48:48.163Z,101433.00
2022-10-09T20:51:14.588Z,101430.00
2022-10-09T20:53:41.211Z,101424.00
2022-10-09T20:56:08.886Z,101426.00
2022-10-09T20:58:35.455Z,101436.00
2022-10-09T21:01:06.229Z,101428.00
2022-10-09T21:03:33.282Z,101424.00
2022-10-09T21:06:01.999Z,101428.00
2022-10-09T21:08:28.443Z,101428.00
2022-10-09T21:10:54.930Z,101423.00
2022-10-09T21:13:21.403Z,101423.00
2022-10-09T21:15:48.744Z,101426.00
2022-10-09T21:18:16.215Z,101414.00
2022-10-09T21:20:43.625Z,101425.00
2022-10-09T21:23:10.876Z,101415.00
2022-10-09T21:25:37.547Z,101415.00
2022-10-09T21:28:04.262Z,101420.00
2022-10-09T21:30:30.759Z,101417.00
2022-10-09T21:32:57.217Z,101422.00
2022-10-09T21:35:23.788Z,101412.00
2022-10-09T21:37:50.580Z,101416.00
2022-10-09T21:40:17.368Z,101407.00
2022-10-09T21:42:43.775Z,101409.00
2022-10-09T21:45:10.709Z,101417.00
2022-10-09T21:47:37.136Z,101410.00
2022-10-09T21:50:03.718Z,101410.00
2022-10-09T21:52:30.152Z,101415.00
2022-10-09T21:54:56.615Z,101413.00
2022-10-09T21:57:23.014Z,101415.00
2022-10-09T21:59:49.546Z,101409.00
2022-10-09T22:02:16.036Z,101406.00
2022-10-09T22:04:42.542Z,101408.00
2022-10-09T22:07:09.019Z,101409.00
2022-10-09T22:09:35.468Z,101401.00
2022-10-09T22:12:01.905Z,101412.00
2022-10-09T22:14:28.395Z,101409.00
2022-10-09T22:16:54.828Z,101409.00
2022-10-09T22:19:21.246Z,101409.00
2022-10-09T22:21:48.839Z,101411.00
2022-10-09T22:24:15.401Z,101401.00
2022-10-09T22:26:41.849Z,101400.00
2022-10-09T22:29:08.258Z,101393.00
2022-10-09T22:31:34.693Z,101400.00
2022-10-09T22:34:01.540Z,101387.00
2022-10-09T22:36:29.791Z,101389.00
2022-10-09T22:38:57.471Z,101388.00
2022-10-09T22:41:24.490Z,101385.00
2022-10-09T22:43:52.389Z,101386.00
2022-10-09T22:46:21.077Z,101381.00
2022-10-09T22:48:47.631Z,101382.00
2022-10-09T22:51:15.395Z,101381.00
2022-10-09T22:53:42.087Z,101378.00
2022-10-09T22:56:10.189Z,101379.00
2022-10-09T22:58:36.618Z,101368.00
2022-10-09T23:01:07.753Z,101367.00
2022-10-09T23:03:34.581Z,101365.00
2022-10-09T23:06:11.370Z,101367.00
2022-10-09T23:08:38.908Z,101369.00
2022-10-09T23:11:06.027Z,101359.00
2022-10-09T23:13:32.817Z,101360.00
2022-10-09T23:15:59.913Z,101358.00
2022-10-09T23:18:26.447Z,101355.00
2022-10-09T23:20:52.934Z,101345.00
2022-10-09T23:23:19.390Z,101349.00
2022-10-09T23:25:45.842Z,101345.00
2022-10-09T23:28:12.496Z,101337.00
2022-10-09T23:30:39.022Z,101339.00
2022-10-09T23:33:05.507Z,101332.00
2022-10-09T23:35:32.046Z,101331.00
2022-10-09T23:37:58.535Z,101338.00
2022-10-09T23:40:24.941Z,101328.00
2022-10-09T23:42:51.554Z,101327.00
2022-10-09T23:45:18.208Z,101325.00
2022-10-09T23:47:44.669Z,101320.00
2022-10-09T23:50:11.115Z,101323.00
2022-10-09T23:52:37.609Z,101321.00
2022-10-09T23:55:04.172Z,101318.00
2022-10-09T23:57:30.623Z,101314.00
2022-10-09T23:59:57.070Z,101311.00
